• Join FlightAware (Why Join?)
  • Login
  • US Flag 
Trick or treat! (Boo!!) 
10:46PM EDT


 

Airport Tracker/Info


-or-


 

Live Flight TrackerFlight Track Log ✈ CTL17 ✈ 02-Jul-2013 ✈ KBKL - KPTK

Flight Track Log - Related Links

Times and Time Zones

All times are in EDT time to prevent confusion due to time zone crossing. See the CTL17 flight status page for this flight to view local times or setup timezone preferences in your user account.

Time Position Orientation Groundspeed Altitude Reporting Facility
EDT Latitude Longitude Course Direction KTS MPH feet Rate Location/Type
06:36PM 41.5708 -81.7017 340° North 133 153 2,200  Level Cleveland Center
06:37PM 41.6061 -81.7244 334° Northwest 154 177 3,000 840 Climbing Cleveland Center
06:38PM 41.6222 -81.7803 291° West 150 173 4,000 780 Climbing Cleveland Center
06:39PM 41.6364 -81.8306 291° West 147 169 4,700 720 Climbing Cleveland Center
06:40PM 41.6503 -81.8808 290° West 146 168 5,500 660 Climbing Cleveland Center
06:41PM 41.6644 -81.9339 290° West 147 169 6,100 240 Climbing Cleveland Center
06:42PM 41.6803 -81.9900 291° West 168 193 6,100 -60 Level Cleveland Center
06:43PM 41.6961 -82.0542 288° West 174 200 6,000 -60 Descending Cleveland Center
06:44PM 41.7100 -82.1158 287° West 172 198 6,000  Level Cleveland Center
06:45PM 41.7258 -82.1744 290° West 171 197 6,000  Level Cleveland Center
06:46PM 41.7439 -82.2333 292° West 171 197 6,000  Level Cleveland Center
06:47PM 41.7617 -82.3006 290° West 172 198 6,000  Level Cleveland Center
06:48PM 41.7853 -82.3792 292° West 171 197 6,000  Level Cleveland Center
06:49PM 41.7969 -82.4353 286° West 169 194 6,000  Level Cleveland Center
06:50PM 41.8106 -82.4914 288° West 167 192 6,000  Level Cleveland Center
06:51PM 41.8242 -82.5503 287° West 169 194 6,000  Level Cleveland Center
06:52PM 41.8378 -82.6122 286° West 169 194 6,000 -180 Level Cleveland Center
06:53PM 41.8786 -82.6553 322° Northwest 191 220 5,700 -420 Descending Cleveland Center
06:54PM 41.9300 -82.6933 331° Northwest 200 230 5,200 -540 Descending Cleveland Center
06:55PM 41.9775 -82.7256 333° Northwest 197 227 4,600 -600 Descending Cleveland Center
06:56PM 42.0247 -82.7661 327° Northwest 196 226 4,100 -300 Descending Cleveland Center
06:57PM 42.0678 -82.7956 333° Northwest 187 215 4,100 -60 Level Cleveland Center
06:58PM 42.1131 -82.8253 334° Northwest 173 199 4,000 -60 Descending Cleveland Center
06:59PM 42.1542 -82.8575 330° Northwest 172 198 4,000  Level Cleveland Center
07:00PM 42.1994 -82.8872 334° Northwest 173 199 4,000  Level Cleveland Center
07:01PM 42.2406 -82.9167 332° Northwest 175 201 4,000  Level Cleveland Center
07:02PM 42.2817 -82.9492 330° Northwest 172 198 4,100  Climbing Cleveland Center
07:03PM 42.3289 -82.9817 333° Northwest 170 196 4,000 -60 Descending Cleveland Center
07:04PM 42.3678 -83.0086 333° Northwest 169 194 4,000  Level Cleveland Center
07:05PM 42.4022 -83.0547 315° West 172 198 4,000  Level Cleveland Center
07:06PM 42.4347 -83.1039 312° West 173 199 4,000 -240 Level Cleveland Center
07:07PM 42.4692 -83.1503 315° West 184 212 3,600 -540 Descending Cleveland Center
07:08PM 42.5033 -83.1997 313° West 181 208 3,000 -300 Descending Cleveland Center
07:09PM 42.5397 -83.2461 317° Northwest 168 193 3,000  Level Cleveland Center
07:10PM 42.5722 -83.2900 315° West 168 193 3,000 -240 Level Cleveland Center
07:11PM 42.6025 -83.3336 313° West 173 199 2,600 -540 Descending Cleveland Center
07:12PM 42.6322 -83.3914 305° West 185 213 2,000 -480 Descending Cleveland Center
07:13PM 42.6433 -83.4511 284° West 135 155 1,600 -360 Descending Cleveland Center
07:15PM 42.6500 -83.4167 304° West  Level FlightAware Approximate